sensor_id;sensor_type;location;lat;lon;timestamp;P1;durP1;ratioP1;P2;durP2;ratioP2
58242;SDS011;50118;53.232;8.252;2023-06-10T00:00:38;11.00;;;4.50;;
58242;SDS011;50118;53.232;8.252;2023-06-10T00:03:06;9.45;;;4.78;;
58242;SDS011;50118;53.232;8.252;2023-06-10T00:05:33;9.07;;;4.55;;
58242;SDS011;50118;53.232;8.252;2023-06-10T00:08:00;9.40;;;4.85;;
58242;SDS011;50118;53.232;8.252;2023-06-10T00:10:37;10.07;;;4.45;;
58242;SDS011;50118;53.232;8.252;2023-06-10T00:13:03;9.00;;;4.35;;
58242;SDS011;50118;53.232;8.252;2023-06-10T00:15:30;8.68;;;4.78;;
58242;SDS011;50118;53.232;8.252;2023-06-10T00:17:56;8.57;;;4.70;;
58242;SDS011;50118;53.232;8.252;2023-06-10T00:20:22;10.80;;;4.70;;
58242;SDS011;50118;53.232;8.252;2023-06-10T00:22:49;7.75;;;4.57;;
58242;SDS011;50118;53.232;8.252;2023-06-10T00:25:18;8.32;;;4.25;;
58242;SDS011;50118;53.232;8.252;2023-06-10T00:27:44;9.38;;;4.40;;
58242;SDS011;50118;53.232;8.252;2023-06-10T00:30:10;8.10;;;4.55;;
58242;SDS011;50118;53.232;8.252;2023-06-10T00:32:38;7.05;;;4.55;;
58242;SDS011;50118;53.232;8.252;2023-06-10T00:35:04;8.23;;;4.70;;
58242;SDS011;50118;53.232;8.252;2023-06-10T00:37:30;6.82;;;4.95;;
58242;SDS011;50118;53.232;8.252;2023-06-10T00:39:57;6.97;;;4.38;;
58242;SDS011;50118;53.232;8.252;2023-06-10T00:42:22;9.15;;;4.90;;
58242;SDS011;50118;53.232;8.252;2023-06-10T00:44:49;8.48;;;5.20;;
58242;SDS011;50118;53.232;8.252;2023-06-10T00:47:15;8.30;;;4.65;;
58242;SDS011;50118;53.232;8.252;2023-06-10T00:49:41;8.82;;;5.25;;
58242;SDS011;50118;53.232;8.252;2023-06-10T00:52:07;9.90;;;4.97;;
58242;SDS011;50118;53.232;8.252;2023-06-10T00:54:33;9.55;;;5.50;;
58242;SDS011;50118;53.232;8.252;2023-06-10T00:57:00;10.82;;;5.25;;
58242;SDS011;50118;53.232;8.252;2023-06-10T00:59:28;10.80;;;5.35;;
58242;SDS011;50118;53.232;8.252;2023-06-10T01:01:54;9.55;;;5.53;;
58242;SDS011;50118;53.232;8.252;2023-06-10T01:04:21;11.43;;;5.47;;
58242;SDS011;50118;53.232;8.252;2023-06-10T01:15:05;12.63;;;6.00;;
58242;SDS011;50118;53.232;8.252;2023-06-10T01:17:30;10.18;;;5.60;;
58242;SDS011;50118;53.232;8.252;2023-06-10T01:19:56;11.57;;;5.53;;
58242;SDS011;50118;53.232;8.252;2023-06-10T01:22:23;11.25;;;6.28;;
58242;SDS011;50118;53.232;8.252;2023-06-10T01:25:01;11.55;;;6.10;;
58242;SDS011;50118;53.232;8.252;2023-06-10T01:27:32;11.25;;;5.80;;
58242;SDS011;50118;53.232;8.252;2023-06-10T01:30:05;11.02;;;5.57;;
58242;SDS011;50118;53.232;8.252;2023-06-10T01:32:40;11.25;;;5.90;;
58242;SDS011;50118;53.232;8.252;2023-06-10T01:35:10;9.75;;;5.82;;
58242;SDS011;50118;53.232;8.252;2023-06-10T01:37:38;11.50;;;6.25;;
58242;SDS011;50118;53.232;8.252;2023-06-10T01:40:05;11.90;;;6.43;;
58242;SDS011;50118;53.232;8.252;2023-06-10T01:42:32;10.57;;;6.18;;
58242;SDS011;50118;53.232;8.252;2023-06-10T01:44:58;10.23;;;6.40;;
58242;SDS011;50118;53.232;8.252;2023-06-10T01:47:23;11.55;;;6.75;;
58242;SDS011;50118;53.232;8.252;2023-06-10T01:49:49;15.20;;;7.30;;
58242;SDS011;50118;53.232;8.252;2023-06-10T01:52:14;12.05;;;6.90;;
58242;SDS011;50118;53.232;8.252;2023-06-10T01:54:40;10.60;;;6.60;;
58242;SDS011;50118;53.232;8.252;2023-06-10T01:57:05;13.15;;;6.65;;
58242;SDS011;50118;53.232;8.252;2023-06-10T01:59:31;11.77;;;6.78;;
58242;SDS011;50118;53.232;8.252;2023-06-10T02:01:56;11.35;;;7.20;;
58242;SDS011;50118;53.232;8.252;2023-06-10T02:04:22;12.07;;;7.03;;
58242;SDS011;50118;53.232;8.252;2023-06-10T02:06:47;13.00;;;7.97;;
58242;SDS011;50118;53.232;8.252;2023-06-10T02:09:13;11.68;;;7.70;;
58242;SDS011;50118;53.232;8.252;2023-06-10T02:11:39;11.50;;;7.20;;
58242;SDS011;50118;53.232;8.252;2023-06-10T02:14:04;11.07;;;7.93;;
58242;SDS011;50118;53.232;8.252;2023-06-10T02:16:30;12.43;;;8.13;;
58242;SDS011;50118;53.232;8.252;2023-06-10T02:18:56;14.20;;;8.20;;
58242;SDS011;50118;53.232;8.252;2023-06-10T02:21:22;11.45;;;7.72;;
58242;SDS011;50118;53.232;8.252;2023-06-10T02:23:47;16.27;;;8.93;;
58242;SDS011;50118;53.232;8.252;2023-06-10T02:26:12;13.52;;;8.25;;
58242;SDS011;50118;53.232;8.252;2023-06-10T02:28:38;16.17;;;8.23;;
58242;SDS011;50118;53.232;8.252;2023-06-10T02:31:07;14.88;;;7.63;;
58242;SDS011;50118;53.232;8.252;2023-06-10T02:33:32;12.40;;;7.97;;
58242;SDS011;50118;53.232;8.252;2023-06-10T02:35:58;15.57;;;8.60;;
58242;SDS011;50118;53.232;8.252;2023-06-10T02:38:24;14.65;;;9.25;;
58242;SDS011;50118;53.232;8.252;2023-06-10T02:40:49;15.32;;;8.98;;
58242;SDS011;50118;53.232;8.252;2023-06-10T02:43:15;14.35;;;9.05;;
58242;SDS011;50118;53.232;8.252;2023-06-10T02:45:40;16.83;;;9.60;;
58242;SDS011;50118;53.232;8.252;2023-06-10T02:48:06;13.80;;;9.18;;
58242;SDS011;50118;53.232;8.252;2023-06-10T02:50:31;20.98;;;9.93;;
58242;SDS011;50118;53.232;8.252;2023-06-10T02:52:57;34.15;;;9.68;;
58242;SDS011;50118;53.232;8.252;2023-06-10T02:55:22;36.03;;;10.10;;
58242;SDS011;50118;53.232;8.252;2023-06-10T02:57:51;16.50;;;9.60;;
58242;SDS011;50118;53.232;8.252;2023-06-10T03:00:17;16.15;;;10.20;;
58242;SDS011;50118;53.232;8.252;2023-06-10T03:02:45;13.85;;;9.77;;
58242;SDS011;50118;53.232;8.252;2023-06-10T03:05:10;14.55;;;10.30;;
58242;SDS011;50118;53.232;8.252;2023-06-10T03:07:38;13.00;;;9.98;;
58242;SDS011;50118;53.232;8.252;2023-06-10T03:10:05;13.68;;;9.68;;
58242;SDS011;50118;53.232;8.252;2023-06-10T03:12:31;15.40;;;9.38;;
58242;SDS011;50118;53.232;8.252;2023-06-10T03:14:57;14.48;;;9.25;;
58242;SDS011;50118;53.232;8.252;2023-06-10T03:17:22;13.32;;;9.40;;
58242;SDS011;50118;53.232;8.252;2023-06-10T03:19:48;16.65;;;10.13;;
58242;SDS011;50118;53.232;8.252;2023-06-10T03:22:14;15.50;;;9.32;;
58242;SDS011;50118;53.232;8.252;2023-06-10T03:24:41;23.63;;;10.52;;
58242;SDS011;50118;53.232;8.252;2023-06-10T03:27:09;20.20;;;10.50;;
58242;SDS011;50118;53.232;8.252;2023-06-10T03:29:36;23.60;;;9.80;;
58242;SDS011;50118;53.232;8.252;2023-06-10T03:32:02;12.40;;;8.70;;
58242;SDS011;50118;53.232;8.252;2023-06-10T03:34:28;12.63;;;10.05;;
58242;SDS011;50118;53.232;8.252;2023-06-10T03:36:54;15.13;;;10.35;;
58242;SDS011;50118;53.232;8.252;2023-06-10T03:39:20;16.67;;;8.93;;
58242;SDS011;50118;53.232;8.252;2023-06-10T03:41:46;14.98;;;10.13;;
58242;SDS011;50118;53.232;8.252;2023-06-10T03:44:11;15.77;;;10.93;;
58242;SDS011;50118;53.232;8.252;2023-06-10T03:46:36;15.82;;;10.98;;
58242;SDS011;50118;53.232;8.252;2023-06-10T03:49:02;18.00;;;11.10;;
58242;SDS011;50118;53.232;8.252;2023-06-10T03:51:28;15.90;;;10.07;;
58242;SDS011;50118;53.232;8.252;2023-06-10T03:53:53;18.13;;;10.57;;
58242;SDS011;50118;53.232;8.252;2023-06-10T03:56:18;19.17;;;9.20;;
58242;SDS011;50118;53.232;8.252;2023-06-10T03:58:44;14.90;;;9.27;;
58242;SDS011;50118;53.232;8.252;2023-06-10T04:01:09;13.90;;;9.43;;
58242;SDS011;50118;53.232;8.252;2023-06-10T04:03:35;13.20;;;9.05;;
58242;SDS011;50118;53.232;8.252;2023-06-10T04:06:01;13.90;;;9.73;;
58242;SDS011;50118;53.232;8.252;2023-06-10T04:08:27;12.93;;;9.10;;
58242;SDS011;50118;53.232;8.252;2023-06-10T04:10:53;17.17;;;8.32;;
58242;SDS011;50118;53.232;8.252;2023-06-10T04:13:18;13.90;;;8.63;;
58242;SDS011;50118;53.232;8.252;2023-06-10T04:15:44;15.00;;;8.15;;
58242;SDS011;50118;53.232;8.252;2023-06-10T04:18:10;11.70;;;7.35;;
58242;SDS011;50118;53.232;8.252;2023-06-10T04:20:35;9.48;;;6.72;;
58242;SDS011;50118;53.232;8.252;2023-06-10T04:23:01;11.93;;;6.63;;
58242;SDS011;50118;53.232;8.252;2023-06-10T04:25:26;8.77;;;6.28;;
58242;SDS011;50118;53.232;8.252;2023-06-10T04:27:53;12.27;;;6.63;;
58242;SDS011;50118;53.232;8.252;2023-06-10T04:30:22;7.80;;;5.38;;
58242;SDS011;50118;53.232;8.252;2023-06-10T04:32:47;8.73;;;5.55;;
58242;SDS011;50118;53.232;8.252;2023-06-10T04:35:16;9.18;;;5.20;;
58242;SDS011;50118;53.232;8.252;2023-06-10T04:37:44;8.90;;;5.43;;
58242;SDS011;50118;53.232;8.252;2023-06-10T04:40:10;9.50;;;5.20;;
58242;SDS011;50118;53.232;8.252;2023-06-10T04:42:38;7.65;;;4.82;;
58242;SDS011;50118;53.232;8.252;2023-06-10T04:45:04;8.80;;;4.93;;
58242;SDS011;50118;53.232;8.252;2023-06-10T04:47:33;11.82;;;5.30;;
58242;SDS011;50118;53.232;8.252;2023-06-10T04:49:59;10.13;;;5.10;;
58242;SDS011;50118;53.232;8.252;2023-06-10T04:52:25;9.48;;;4.90;;
58242;SDS011;50118;53.232;8.252;2023-06-10T04:54:52;9.68;;;4.78;;
58242;SDS011;50118;53.232;8.252;2023-06-10T04:57:17;7.90;;;4.45;;
58242;SDS011;50118;53.232;8.252;2023-06-10T04:59:43;9.43;;;4.53;;
58242;SDS011;50118;53.232;8.252;2023-06-10T05:02:08;8.60;;;4.75;;
58242;SDS011;50118;53.232;8.252;2023-06-10T05:04:34;6.68;;;4.55;;
58242;SDS011;50118;53.232;8.252;2023-06-10T05:06:59;11.27;;;5.05;;
58242;SDS011;50118;53.232;8.252;2023-06-10T05:09:25;8.93;;;4.43;;
58242;SDS011;50118;53.232;8.252;2023-06-10T05:11:51;8.50;;;4.05;;
58242;SDS011;50118;53.232;8.252;2023-06-10T05:14:18;9.13;;;3.90;;
58242;SDS011;50118;53.232;8.252;2023-06-10T05:16:45;9.50;;;4.30;;
58242;SDS011;50118;53.232;8.252;2023-06-10T05:19:11;7.80;;;3.95;;
58242;SDS011;50118;53.232;8.252;2023-06-10T05:21:37;8.55;;;4.13;;
58242;SDS011;50118;53.232;8.252;2023-06-10T05:24:03;8.13;;;3.97;;
58242;SDS011;50118;53.232;8.252;2023-06-10T05:26:29;8.02;;;3.83;;
58242;SDS011;50118;53.232;8.252;2023-06-10T05:28:56;7.88;;;3.78;;
58242;SDS011;50118;53.232;8.252;2023-06-10T05:31:25;8.63;;;3.80;;
58242;SDS011;50118;53.232;8.252;2023-06-10T05:33:50;8.50;;;3.47;;
58242;SDS011;50118;53.232;8.252;2023-06-10T05:36:16;8.45;;;3.70;;
58242;SDS011;50118;53.232;8.252;2023-06-10T05:38:44;10.07;;;4.10;;
58242;SDS011;50118;53.232;8.252;2023-06-10T05:41:13;8.32;;;3.72;;
58242;SDS011;50118;53.232;8.252;2023-06-10T05:43:41;9.43;;;3.80;;
58242;SDS011;50118;53.232;8.252;2023-06-10T05:46:16;8.63;;;3.80;;
58242;SDS011;50118;53.232;8.252;2023-06-10T05:48:44;10.05;;;4.07;;
58242;SDS011;50118;53.232;8.252;2023-06-10T05:51:13;8.82;;;3.80;;
58242;SDS011;50118;53.232;8.252;2023-06-10T05:53:38;7.90;;;3.70;;
58242;SDS011;50118;53.232;8.252;2023-06-10T05:56:04;8.85;;;3.70;;
58242;SDS011;50118;53.232;8.252;2023-06-10T05:58:33;7.80;;;3.30;;
58242;SDS011;50118;53.232;8.252;2023-06-10T06:00:59;7.35;;;3.20;;
58242;SDS011;50118;53.232;8.252;2023-06-10T06:03:25;8.73;;;3.72;;
58242;SDS011;50118;53.232;8.252;2023-06-10T06:05:50;6.97;;;3.30;;
58242;SDS011;50118;53.232;8.252;2023-06-10T06:08:15;8.40;;;3.30;;
58242;SDS011;50118;53.232;8.252;2023-06-10T06:10:44;7.35;;;3.35;;
58242;SDS011;50118;53.232;8.252;2023-06-10T06:13:10;8.43;;;3.20;;
58242;SDS011;50118;53.232;8.252;2023-06-10T06:15:35;8.35;;;3.70;;
58242;SDS011;50118;53.232;8.252;2023-06-10T06:18:01;9.20;;;3.28;;
58242;SDS011;50118;53.232;8.252;2023-06-10T06:20:29;7.88;;;3.55;;
58242;SDS011;50118;53.232;8.252;2023-06-10T06:22:55;6.90;;;2.95;;
58242;SDS011;50118;53.232;8.252;2023-06-10T06:25:20;6.18;;;3.00;;
58242;SDS011;50118;53.232;8.252;2023-06-10T06:27:46;6.32;;;3.10;;
58242;SDS011;50118;53.232;8.252;2023-06-10T06:30:11;8.50;;;3.40;;
58242;SDS011;50118;53.232;8.252;2023-06-10T06:32:37;6.15;;;2.90;;
58242;SDS011;50118;53.232;8.252;2023-06-10T06:35:02;9.02;;;3.53;;
58242;SDS011;50118;53.232;8.252;2023-06-10T06:37:31;7.85;;;3.65;;
58242;SDS011;50118;53.232;8.252;2023-06-10T06:39:57;8.18;;;3.55;;
58242;SDS011;50118;53.232;8.252;2023-06-10T06:42:23;10.00;;;3.35;;
58242;SDS011;50118;53.232;8.252;2023-06-10T06:44:48;5.72;;;3.20;;
58242;SDS011;50118;53.232;8.252;2023-06-10T06:47:14;8.27;;;3.65;;
58242;SDS011;50118;53.232;8.252;2023-06-10T06:49:45;6.70;;;3.42;;
58242;SDS011;50118;53.232;8.252;2023-06-10T06:52:14;9.85;;;3.85;;
58242;SDS011;50118;53.232;8.252;2023-06-10T06:54:40;7.30;;;3.47;;
58242;SDS011;50118;53.232;8.252;2023-06-10T06:57:05;7.90;;;3.63;;
58242;SDS011;50118;53.232;8.252;2023-06-10T06:59:32;8.52;;;3.60;;
58242;SDS011;50118;53.232;8.252;2023-06-10T07:01:57;8.02;;;4.00;;
58242;SDS011;50118;53.232;8.252;2023-06-10T07:04:23;9.13;;;4.18;;
58242;SDS011;50118;53.232;8.252;2023-06-10T07:06:48;9.75;;;4.40;;
58242;SDS011;50118;53.232;8.252;2023-06-10T07:09:14;8.57;;;4.30;;
58242;SDS011;50118;53.232;8.252;2023-06-10T07:11:40;7.90;;;4.22;;
58242;SDS011;50118;53.232;8.252;2023-06-10T07:14:06;8.55;;;4.38;;
58242;SDS011;50118;53.232;8.252;2023-06-10T07:16:31;7.65;;;4.20;;
58242;SDS011;50118;53.232;8.252;2023-06-10T07:19:00;12.15;;;4.90;;
58242;SDS011;50118;53.232;8.252;2023-06-10T07:21:25;8.82;;;5.07;;
58242;SDS011;50118;53.232;8.252;2023-06-10T07:23:51;8.27;;;4.65;;
58242;SDS011;50118;53.232;8.252;2023-06-10T07:26:19;9.27;;;4.60;;
58242;SDS011;50118;53.232;8.252;2023-06-10T07:28:44;9.07;;;4.60;;
58242;SDS011;50118;53.232;8.252;2023-06-10T07:31:10;9.35;;;4.45;;
58242;SDS011;50118;53.232;8.252;2023-06-10T07:33:37;7.55;;;5.20;;
58242;SDS011;50118;53.232;8.252;2023-06-10T07:36:04;8.23;;;5.15;;
58242;SDS011;50118;53.232;8.252;2023-06-10T07:38:30;11.73;;;4.53;;
58242;SDS011;50118;53.232;8.252;2023-06-10T07:40:55;132.60;;;14.70;;
58242;SDS011;50118;53.232;8.252;2023-06-10T07:43:21;10.75;;;5.53;;
58242;SDS011;50118;53.232;8.252;2023-06-10T07:45:47;9.45;;;4.97;;
58242;SDS011;50118;53.232;8.252;2023-06-10T07:48:12;7.45;;;5.03;;
58242;SDS011;50118;53.232;8.252;2023-06-10T07:50:37;10.30;;;4.95;;
58242;SDS011;50118;53.232;8.252;2023-06-10T07:53:04;9.02;;;4.90;;
58242;SDS011;50118;53.232;8.252;2023-06-10T07:55:29;9.48;;;5.40;;
58242;SDS011;50118;53.232;8.252;2023-06-10T07:57:54;11.13;;;4.80;;
58242;SDS011;50118;53.232;8.252;2023-06-10T08:00:20;10.68;;;4.93;;
58242;SDS011;50118;53.232;8.252;2023-06-10T08:02:46;9.52;;;4.97;;
58242;SDS011;50118;53.232;8.252;2023-06-10T08:05:12;9.70;;;5.00;;
58242;SDS011;50118;53.232;8.252;2023-06-10T08:07:38;8.50;;;4.53;;
58242;SDS011;50118;53.232;8.252;2023-06-10T08:10:04;7.57;;;4.75;;
58242;SDS011;50118;53.232;8.252;2023-06-10T08:12:31;9.48;;;4.85;;
58242;SDS011;50118;53.232;8.252;2023-06-10T08:14:57;8.45;;;4.40;;
58242;SDS011;50118;53.232;8.252;2023-06-10T08:17:23;15.43;;;5.72;;
58242;SDS011;50118;53.232;8.252;2023-06-10T08:19:49;10.75;;;5.22;;
58242;SDS011;50118;53.232;8.252;2023-06-10T08:22:14;12.10;;;5.50;;
58242;SDS011;50118;53.232;8.252;2023-06-10T08:24:40;10.90;;;5.32;;
58242;SDS011;50118;53.232;8.252;2023-06-10T08:27:05;7.80;;;4.57;;
58242;SDS011;50118;53.232;8.252;2023-06-10T08:29:31;9.55;;;4.70;;
58242;SDS011;50118;53.232;8.252;2023-06-10T08:31:57;10.80;;;5.00;;
58242;SDS011;50118;53.232;8.252;2023-06-10T08:34:23;7.90;;;4.43;;
58242;SDS011;50118;53.232;8.252;2023-06-10T08:36:48;9.48;;;4.78;;
58242;SDS011;50118;53.232;8.252;2023-06-10T08:39:18;8.25;;;4.70;;
58242;SDS011;50118;53.232;8.252;2023-06-10T08:41:46;8.02;;;4.32;;
58242;SDS011;50118;53.232;8.252;2023-06-10T08:44:33;8.75;;;4.60;;
58242;SDS011;50118;53.232;8.252;2023-06-10T08:47:05;6.68;;;4.40;;
58242;SDS011;50118;53.232;8.252;2023-06-10T08:49:34;8.05;;;4.43;;
58242;SDS011;50118;53.232;8.252;2023-06-10T08:52:03;6.88;;;4.45;;
58242;SDS011;50118;53.232;8.252;2023-06-10T08:54:30;9.82;;;4.65;;
58242;SDS011;50118;53.232;8.252;2023-06-10T08:57:00;7.40;;;4.32;;
58242;SDS011;50118;53.232;8.252;2023-06-10T08:59:28;9.75;;;4.97;;
58242;SDS011;50118;53.232;8.252;2023-06-10T09:01:54;7.15;;;4.63;;
58242;SDS011;50118;53.232;8.252;2023-06-10T09:04:20;8.63;;;4.50;;
58242;SDS011;50118;53.232;8.252;2023-06-10T09:06:45;89.88;;;9.77;;
58242;SDS011;50118;53.232;8.252;2023-06-10T09:09:14;7.53;;;3.90;;
58242;SDS011;50118;53.232;8.252;2023-06-10T09:11:43;8.60;;;4.35;;
58242;SDS011;50118;53.232;8.252;2023-06-10T09:14:08;7.80;;;4.13;;
58242;SDS011;50118;53.232;8.252;2023-06-10T09:16:34;8.55;;;3.70;;
58242;SDS011;50118;53.232;8.252;2023-06-10T09:19:00;6.85;;;4.10;;
58242;SDS011;50118;53.232;8.252;2023-06-10T09:21:32;7.38;;;3.78;;
58242;SDS011;50118;53.232;8.252;2023-06-10T09:23:58;7.78;;;3.60;;
58242;SDS011;50118;53.232;8.252;2023-06-10T09:26:27;7.43;;;3.80;;
58242;SDS011;50118;53.232;8.252;2023-06-10T09:28:57;6.80;;;3.65;;
58242;SDS011;50118;53.232;8.252;2023-06-10T09:31:33;9.25;;;3.42;;
58242;SDS011;50118;53.232;8.252;2023-06-10T09:36:34;7.47;;;3.63;;
58242;SDS011;50118;53.232;8.252;2023-06-10T09:39:00;7.85;;;3.42;;
58242;SDS011;50118;53.232;8.252;2023-06-10T09:41:32;7.45;;;3.17;;
58242;SDS011;50118;53.232;8.252;2023-06-10T09:44:08;8.20;;;3.30;;
58242;SDS011;50118;53.232;8.252;2023-06-10T09:46:40;7.00;;;3.42;;
58242;SDS011;50118;53.232;8.252;2023-06-10T09:49:06;8.60;;;3.60;;
58242;SDS011;50118;53.232;8.252;2023-06-10T09:51:32;8.07;;;3.83;;
58242;SDS011;50118;53.232;8.252;2023-06-10T09:53:58;6.40;;;3.53;;
58242;SDS011;50118;53.232;8.252;2023-06-10T09:56:34;7.68;;;3.33;;
58242;SDS011;50118;53.232;8.252;2023-06-10T09:59:03;298.77;;;23.17;;
58242;SDS011;50118;53.232;8.252;2023-06-10T10:01:31;8.43;;;3.67;;
58242;SDS011;50118;53.232;8.252;2023-06-10T10:03:58;6.20;;;3.40;;
58242;SDS011;50118;53.232;8.252;2023-06-10T10:06:24;7.35;;;3.40;;
58242;SDS011;50118;53.232;8.252;2023-06-10T10:08:50;7.10;;;3.15;;
58242;SDS011;50118;53.232;8.252;2023-06-10T10:11:16;7.32;;;3.13;;
58242;SDS011;50118;53.232;8.252;2023-06-10T10:13:42;8.48;;;3.35;;
58242;SDS011;50118;53.232;8.252;2023-06-10T10:16:11;5.25;;;3.42;;
58242;SDS011;50118;53.232;8.252;2023-06-10T10:18:41;5.95;;;2.90;;
58242;SDS011;50118;53.232;8.252;2023-06-10T10:21:13;6.80;;;3.35;;
58242;SDS011;50118;53.232;8.252;2023-06-10T10:23:46;6.40;;;3.17;;
58242;SDS011;50118;53.232;8.252;2023-06-10T10:26:18;7.63;;;3.80;;
58242;SDS011;50118;53.232;8.252;2023-06-10T10:28:58;5.70;;;3.60;;
58242;SDS011;50118;53.232;8.252;2023-06-10T10:31:27;9.50;;;3.42;;
58242;SDS011;50118;53.232;8.252;2023-06-10T10:33:58;7.70;;;3.35;;
58242;SDS011;50118;53.232;8.252;2023-06-10T10:36:25;7.30;;;3.65;;
58242;SDS011;50118;53.232;8.252;2023-06-10T10:38:52;5.90;;;3.20;;
58242;SDS011;50118;53.232;8.252;2023-06-10T10:41:18;7.97;;;3.63;;
58242;SDS011;50118;53.232;8.252;2023-06-10T10:43:44;6.97;;;3.55;;
58242;SDS011;50118;53.232;8.252;2023-06-10T10:46:12;7.43;;;3.20;;
58242;SDS011;50118;53.232;8.252;2023-06-10T10:48:39;8.43;;;2.90;;
58242;SDS011;50118;53.232;8.252;2023-06-10T10:51:06;6.80;;;3.30;;
58242;SDS011;50118;53.232;8.252;2023-06-10T10:53:32;6.28;;;3.13;;
58242;SDS011;50118;53.232;8.252;2023-06-10T10:56:04;6.93;;;3.00;;
58242;SDS011;50118;53.232;8.252;2023-06-10T10:58:32;6.55;;;3.30;;
58242;SDS011;50118;53.232;8.252;2023-06-10T11:00:57;7.75;;;3.10;;
58242;SDS011;50118;53.232;8.252;2023-06-10T11:03:24;6.07;;;3.30;;
58242;SDS011;50118;53.232;8.252;2023-06-10T11:05:56;7.20;;;3.35;;
58242;SDS011;50118;53.232;8.252;2023-06-10T11:10:53;8.30;;;3.08;;
58242;SDS011;50118;53.232;8.252;2023-06-10T11:13:19;7.30;;;3.17;;
58242;SDS011;50118;53.232;8.252;2023-06-10T11:15:47;6.78;;;2.90;;
58242;SDS011;50118;53.232;8.252;2023-06-10T11:18:24;5.15;;;3.00;;
58242;SDS011;50118;53.232;8.252;2023-06-10T11:26:17;7.15;;;3.10;;
58242;SDS011;50118;53.232;8.252;2023-06-10T11:31:20;5.88;;;3.13;;
58242;SDS011;50118;53.232;8.252;2023-06-10T11:33:47;6.85;;;3.00;;
58242;SDS011;50118;53.232;8.252;2023-06-10T11:36:16;5.97;;;2.85;;
58242;SDS011;50118;53.232;8.252;2023-06-10T11:38:42;6.03;;;2.75;;
58242;SDS011;50118;53.232;8.252;2023-06-10T11:41:08;5.50;;;2.75;;
58242;SDS011;50118;53.232;8.252;2023-06-10T11:43:33;4.65;;;2.60;;
58242;SDS011;50118;53.232;8.252;2023-06-10T11:45:59;5.38;;;2.90;;
58242;SDS011;50118;53.232;8.252;2023-06-10T11:48:25;7.05;;;2.72;;
58242;SDS011;50118;53.232;8.252;2023-06-10T11:50:59;5.40;;;2.55;;
58242;SDS011;50118;53.232;8.252;2023-06-10T11:53:24;5.72;;;2.80;;
58242;SDS011;50118;53.232;8.252;2023-06-10T11:55:50;4.88;;;2.70;;
58242;SDS011;50118;53.232;8.252;2023-06-10T11:58:16;6.60;;;2.70;;
58242;SDS011;50118;53.232;8.252;2023-06-10T12:00:43;7.13;;;2.97;;
58242;SDS011;50118;53.232;8.252;2023-06-10T12:03:35;5.47;;;2.80;;
58242;SDS011;50118;53.232;8.252;2023-06-10T12:06:03;6.13;;;2.63;;
58242;SDS011;50118;53.232;8.252;2023-06-10T12:08:30;7.13;;;2.90;;
58242;SDS011;50118;53.232;8.252;2023-06-10T12:10:56;7.45;;;2.80;;
58242;SDS011;50118;53.232;8.252;2023-06-10T12:13:23;4.93;;;2.45;;
58242;SDS011;50118;53.232;8.252;2023-06-10T12:15:49;4.70;;;2.72;;
58242;SDS011;50118;53.232;8.252;2023-06-10T12:20:43;4.38;;;2.50;;
58242;SDS011;50118;53.232;8.252;2023-06-10T12:23:09;5.15;;;2.50;;
58242;SDS011;50118;53.232;8.252;2023-06-10T12:25:35;5.68;;;2.95;;
58242;SDS011;50118;53.232;8.252;2023-06-10T12:28:04;8.35;;;2.67;;
58242;SDS011;50118;53.232;8.252;2023-06-10T12:30:31;9.70;;;2.75;;
58242;SDS011;50118;53.232;8.252;2023-06-10T12:32:57;4.22;;;2.35;;
58242;SDS011;50118;53.232;8.252;2023-06-10T12:35:26;5.25;;;2.50;;
58242;SDS011;50118;53.232;8.252;2023-06-10T12:40:32;5.43;;;2.30;;
58242;SDS011;50118;53.232;8.252;2023-06-10T12:42:59;4.22;;;2.30;;
58242;SDS011;50118;53.232;8.252;2023-06-10T12:45:37;5.35;;;2.38;;
58242;SDS011;50118;53.232;8.252;2023-06-10T12:48:10;4.10;;;2.30;;
58242;SDS011;50118;53.232;8.252;2023-06-10T12:50:38;4.88;;;2.33;;
58242;SDS011;50118;53.232;8.252;2023-06-10T12:53:04;4.85;;;2.30;;
58242;SDS011;50118;53.232;8.252;2023-06-10T12:55:31;6.43;;;2.65;;
58242;SDS011;50118;53.232;8.252;2023-06-10T12:57:57;4.70;;;2.30;;
58242;SDS011;50118;53.232;8.252;2023-06-10T13:00:25;5.85;;;2.30;;
58242;SDS011;50118;53.232;8.252;2023-06-10T13:02:51;4.65;;;2.22;;
58242;SDS011;50118;53.232;8.252;2023-06-10T13:05:18;4.88;;;2.20;;
58242;SDS011;50118;53.232;8.252;2023-06-10T13:07:45;5.40;;;2.33;;
58242;SDS011;50118;53.232;8.252;2023-06-10T13:10:12;4.57;;;2.47;;
58242;SDS011;50118;53.232;8.252;2023-06-10T13:12:41;4.88;;;2.28;;
58242;SDS011;50118;53.232;8.252;2023-06-10T13:15:07;6.20;;;2.30;;
58242;SDS011;50118;53.232;8.252;2023-06-10T13:17:34;5.65;;;2.25;;
58242;SDS011;50118;53.232;8.252;2023-06-10T13:20:01;5.75;;;2.22;;
58242;SDS011;50118;53.232;8.252;2023-06-10T13:22:30;8.13;;;2.40;;
58242;SDS011;50118;53.232;8.252;2023-06-10T13:25:00;16.55;;;3.00;;
58242;SDS011;50118;53.232;8.252;2023-06-10T13:27:26;6.10;;;2.42;;
58242;SDS011;50118;53.232;8.252;2023-06-10T13:29:52;4.78;;;2.20;;
58242;SDS011;50118;53.232;8.252;2023-06-10T13:32:18;5.82;;;2.78;;
58242;SDS011;50118;53.232;8.252;2023-06-10T13:34:43;5.40;;;2.10;;
58242;SDS011;50118;53.232;8.252;2023-06-10T13:37:09;6.07;;;2.35;;
58242;SDS011;50118;53.232;8.252;2023-06-10T13:39:34;4.70;;;2.20;;
58242;SDS011;50118;53.232;8.252;2023-06-10T13:42:00;5.63;;;2.47;;
58242;SDS011;50118;53.232;8.252;2023-06-10T13:44:25;4.75;;;2.15;;
58242;SDS011;50118;53.232;8.252;2023-06-10T13:46:50;4.53;;;2.05;;
58242;SDS011;50118;53.232;8.252;2023-06-10T13:49:16;3.92;;;2.10;;
58242;SDS011;50118;53.232;8.252;2023-06-10T13:51:41;3.38;;;2.00;;
58242;SDS011;50118;53.232;8.252;2023-06-10T13:54:07;4.45;;;1.83;;
58242;SDS011;50118;53.232;8.252;2023-06-10T13:56:32;5.63;;;2.47;;
58242;SDS011;50118;53.232;8.252;2023-06-10T13:59:02;3.85;;;1.95;;
58242;SDS011;50118;53.232;8.252;2023-06-10T14:01:28;4.22;;;2.00;;
58242;SDS011;50118;53.232;8.252;2023-06-10T14:03:54;3.90;;;2.17;;
58242;SDS011;50118;53.232;8.252;2023-06-10T14:06:19;3.47;;;2.10;;
58242;SDS011;50118;53.232;8.252;2023-06-10T14:08:45;4.47;;;2.10;;
58242;SDS011;50118;53.232;8.252;2023-06-10T14:11:10;3.20;;;1.90;;
58242;SDS011;50118;53.232;8.252;2023-06-10T14:13:37;4.55;;;2.05;;
58242;SDS011;50118;53.232;8.252;2023-06-10T14:16:03;4.43;;;2.40;;
58242;SDS011;50118;53.232;8.252;2023-06-10T14:18:29;4.93;;;2.40;;
58242;SDS011;50118;53.232;8.252;2023-06-10T14:20:55;4.20;;;2.22;;
58242;SDS011;50118;53.232;8.252;2023-06-10T14:23:20;6.82;;;2.60;;
58242;SDS011;50118;53.232;8.252;2023-06-10T14:25:46;4.55;;;2.60;;
58242;SDS011;50118;53.232;8.252;2023-06-10T14:28:11;5.68;;;2.45;;
58242;SDS011;50118;53.232;8.252;2023-06-10T14:30:36;4.78;;;2.22;;
58242;SDS011;50118;53.232;8.252;2023-06-10T14:33:02;4.03;;;2.20;;
58242;SDS011;50118;53.232;8.252;2023-06-10T14:35:27;3.50;;;2.22;;
58242;SDS011;50118;53.232;8.252;2023-06-10T14:37:53;5.47;;;2.50;;
58242;SDS011;50118;53.232;8.252;2023-06-10T14:40:18;4.60;;;2.15;;
58242;SDS011;50118;53.232;8.252;2023-06-10T14:42:46;5.15;;;2.58;;
58242;SDS011;50118;53.232;8.252;2023-06-10T14:45:11;4.30;;;2.20;;
58242;SDS011;50118;53.232;8.252;2023-06-10T14:47:37;5.20;;;2.70;;
58242;SDS011;50118;53.232;8.252;2023-06-10T14:50:02;4.90;;;2.30;;
58242;SDS011;50118;53.232;8.252;2023-06-10T14:52:28;5.05;;;2.40;;
58242;SDS011;50118;53.232;8.252;2023-06-10T14:54:53;7.35;;;2.80;;
58242;SDS011;50118;53.232;8.252;2023-06-10T14:57:19;4.95;;;2.42;;
58242;SDS011;50118;53.232;8.252;2023-06-10T14:59:44;3.97;;;2.60;;
58242;SDS011;50118;53.232;8.252;2023-06-10T15:02:10;5.50;;;2.50;;
58242;SDS011;50118;53.232;8.252;2023-06-10T15:04:35;6.88;;;2.47;;
58242;SDS011;50118;53.232;8.252;2023-06-10T15:07:00;4.57;;;2.60;;